Time;durP1;ratioP1;P1;durP2;ratioP2;P2;SDS_P1;SDS_P2;PMS_P1;PMS_P2;Temp;Humidity;BMP_temperature;BMP_pressure;BME280_temperature;BME280_humidity;BME280_pressure;Samples;Min_cycle;Max_cycle;Signal;HPM_P1;HPM_P2
2021/03/31 00:00:29;;;;;;;20.52;11.52;;;;;;;16.98;42.18;101781.50;343949;28;1216;-64
2021/03/31 00:00:41;;;;;;;20.63;11.85;;;;;;;16.94;41.51;101781.69;341640;28;70379;-65
2021/03/31 00:00:54;;;;;;;19.38;11.60;;;;;;;16.93;41.42;101782.63;342391;28;49157;-62
2021/03/31 00:01:05;;;;;;;21.05;11.60;;;;;;;16.93;41.71;101784.44;343831;28;1156;-62
2021/03/31 00:01:19;;;;;;;20.33;11.57;;;;;;;16.93;41.63;101784.44;343946;28;963;-64
2021/03/31 00:01:30;;;;;;;19.25;11.73;;;;;;;16.92;41.38;101785.38;343119;28;24190;-65
2021/03/31 00:01:42;;;;;;;19.77;11.68;;;;;;;16.93;41.83;101789.78;343992;28;1185;-65
2021/03/31 00:01:53;;;;;;;20.67;11.55;;;;;;;16.93;41.91;101787.94;343932;28;1174;-64
2021/03/31 00:02:05;;;;;;;22.20;11.77;;;;;;;16.93;41.54;101787.09;343941;28;850;-65
2021/03/31 00:02:16;;;;;;;21.08;11.80;;;;;;;16.94;41.54;101784.34;345375;28;1160;-65
2021/03/31 00:02:27;;;;;;;19.70;11.82;;;;;;;16.96;42.14;101781.59;345341;28;1054;-65
2021/03/31 00:02:38;;;;;;;21.00;11.80;;;;;;;16.98;41.79;101790.38;345369;28;1141;-64
2021/03/31 00:02:55;;;;;;;22.17;11.73;;;;;;;17.00;41.58;101782.28;345956;28;1187;-64
2021/03/31 00:03:09;;;;;;;23.25;11.75;;;;;;;17.04;41.67;101784.66;344273;28;72190;-64
2021/03/31 00:03:22;;;;;;;21.95;11.50;;;;;;;17.04;41.70;101783.81;345087;28;48392;-66
2021/03/31 00:03:34;;;;;;;21.15;11.63;;;;;;;17.04;41.80;101784.66;346664;28;1069;-65
2021/03/31 00:03:45;;;;;;;20.92;11.63;;;;;;;17.04;41.40;101782.00;346633;28;1156;-65
2021/03/31 00:03:56;;;;;;;23.96;12.14;;;;;;;17.05;41.62;101786.41;346516;28;1064;-64
2021/03/31 00:04:08;;;;;;;23.83;12.02;;;;;;;17.06;41.85;101787.25;346590;28;1073;-65
2021/03/31 00:04:19;;;;;;;24.00;12.13;;;;;;;17.06;41.73;101785.47;343997;28;2033;-66
2021/03/31 00:04:30;;;;;;;22.02;12.20;;;;;;;17.06;41.77;101789.91;344110;28;1074;-65
2021/03/31 00:04:41;;;;;;;22.73;12.23;;;;;;;17.05;41.62;101783.72;344086;28;1078;-64
2021/03/31 00:04:53;;;;;;;21.27;11.70;;;;;;;17.05;41.37;101786.41;343997;28;1144;-64
2021/03/31 00:05:05;;;;;;;19.80;11.23;;;;;;;17.06;41.74;101785.47;344100;28;1167;-65
2021/03/31 00:05:17;;;;;;;19.58;11.15;;;;;;;17.06;41.85;101785.47;344087;28;1185;-65
2021/03/31 00:05:29;;;;;;;19.80;11.30;;;;;;;17.07;41.46;101779.16;344070;28;1065;-64
2021/03/31 00:05:41;;;;;;;21.33;11.60;;;;;;;17.07;41.56;101787.16;344113;28;1070;-64
2021/03/31 00:05:53;;;;;;;22.75;11.70;;;;;;;17.07;41.36;101789.81;343911;28;1118;-64
2021/03/31 00:06:04;;;;;;;21.15;11.45;;;;;;;17.05;41.75;101786.41;343936;28;1106;-64
2021/03/31 00:06:15;;;;;;;21.77;11.20;;;;;;;17.04;41.56;101784.66;343999;28;1170;-66
2021/03/31 00:06:26;;;;;;;22.13;11.57;;;;;;;17.02;41.53;101786.59;343937;28;1169;-64
2021/03/31 00:06:38;;;;;;;21.77;11.90;;;;;;;17.01;41.94;101782.19;343944;28;1162;-65
2021/03/31 00:06:49;;;;;;;21.05;11.90;;;;;;;16.98;41.59;101785.03;343887;28;1194;-65
2021/03/31 00:07:00;;;;;;;25.85;11.73;;;;;;;16.99;41.46;101786.72;344009;28;1157;-64
2021/03/31 00:07:11;;;;;;;28.13;12.23;;;;;;;17.00;42.05;101784.94;344026;28;1097;-64
2021/03/31 00:07:22;;;;;;;32.53;13.00;;;;;;;17.01;41.73;101789.31;343982;28;1152;-64
2021/03/31 00:07:33;;;;;;;28.02;13.05;;;;;;;17.00;41.64;101783.13;343888;28;1026;-65
2021/03/31 00:07:44;;;;;;;23.73;12.70;;;;;;;16.99;41.50;101780.56;343910;28;1148;-65
2021/03/31 00:07:56;;;;;;;19.85;12.50;;;;;;;16.99;41.86;101781.41;343928;28;1037;-64
2021/03/31 00:08:07;;;;;;;19.08;12.70;;;;;;;17.01;42.19;101783.97;344131;28;1077;-64
2021/03/31 00:08:18;;;;;;;20.24;12.72;;;;;;;16.99;41.45;101786.72;344048;28;1066;-62
2021/03/31 00:08:31;;;;;;;21.25;12.90;;;;;;;16.99;42.25;101784.06;343973;28;1123;-64
2021/03/31 00:08:42;;;;;;;21.67;12.45;;;;;;;17.00;41.94;101784.94;343968;28;1035;-65
2021/03/31 00:08:53;;;;;;;22.58;12.40;;;;;;;17.00;42.14;101783.13;343941;28;1152;-64
2021/03/31 00:09:05;;;;;;;22.13;12.27;;;;;;;17.00;41.74;101782.28;344018;28;1094;-64
2021/03/31 00:09:16;;;;;;;21.60;11.65;;;;;;;17.00;42.19;101779.59;343982;28;1085;-64
2021/03/31 00:09:27;;;;;;;21.70;11.30;;;;;;;17.00;42.12;101784.94;343920;28;1179;-65
2021/03/31 00:09:56;;;;;;;21.70;12.15;;;;;;;16.98;42.14;101779.69;342851;28;33296;-64
2021/03/31 00:10:24;;;;;;;21.02;12.18;;;;;;;17.00;41.69;101774.28;343966;28;1139;-63
2021/03/31 00:10:40;;;;;;;22.17;12.18;;;;;;;17.00;41.98;101783.13;341602;28;69642;-63
2021/03/31 00:10:53;;;;;;;24.45;12.07;;;;;;;17.00;42.04;101783.13;342386;28;47113;-65
2021/03/31 00:11:04;;;;;;;21.85;12.15;;;;;;;17.01;41.96;101784.84;343938;28;1172;-64
2021/03/31 00:11:16;;;;;;;21.60;11.85;;;;;;;17.03;41.99;101784.75;343941;28;1005;-64
2021/03/31 00:11:27;;;;;;;24.12;12.06;;;;;;;17.05;42.37;101789.06;343879;28;1073;-64
2021/03/31 00:11:42;;;;;;;25.10;12.15;;;;;;;17.05;42.25;101777.50;343149;28;25177;-64
2021/03/31 00:11:53;;;;;;;22.88;11.75;;;;;;;17.00;41.85;101783.13;343859;28;1209;-64
2021/03/31 00:12:07;;;;;;;18.50;11.38;;;;;;;16.98;42.14;101779.69;343979;28;2026;-63
2021/03/31 00:12:18;;;;;;;19.58;11.20;;;;;;;16.99;42.43;101778.72;342970;28;24398;-64
2021/03/31 00:12:29;;;;;;;19.70;11.10;;;;;;;17.00;42.16;101782.28;343947;28;2138;-64
2021/03/31 00:12:40;;;;;;;20.40;11.40;;;;;;;17.00;42.20;101779.59;344035;28;1155;-64
2021/03/31 00:12:51;;;;;;;21.13;11.75;;;;;;;17.01;42.43;101784.84;344111;28;1062;-64
2021/03/31 00:13:03;;;;;;;21.40;11.82;;;;;;;16.96;41.60;101776.25;344041;28;1046;-66
2021/03/31 00:13:16;;;;;;;21.38;11.75;;;;;;;16.98;42.23;101786.81;343874;28;1951;-66
2021/03/31 00:13:27;;;;;;;23.27;12.00;;;;;;;16.95;42.07;101779.84;343922;28;1054;-64
2021/03/31 00:13:39;;;;;;;23.45;11.93;;;;;;;16.91;42.47;101772.97;343971;28;1168;-67
2021/03/31 00:13:50;;;;;;;22.60;12.30;;;;;;;16.90;42.16;101776.63;343998;28;1149;-64
2021/03/31 00:14:01;;;;;;;21.13;12.05;;;;;;;16.90;42.13;101776.63;343934;28;1192;-64
2021/03/31 00:14:31;;;;;;;17.05;11.63;;;;;;;16.79;42.35;101774.53;342868;28;33189;-64
2021/03/31 00:14:42;;;;;;;18.02;11.98;;;;;;;16.81;42.13;101780.63;343933;28;1023;-63
2021/03/31 00:14:53;;;;;;;19.58;11.98;;;;;;;16.83;42.32;101777.84;343982;28;1189;-64
2021/03/31 00:15:05;;;;;;;23.15;11.98;;;;;;;16.82;42.23;101781.50;343875;28;1157;-63
2021/03/31 00:15:17;;;;;;;21.45;11.52;;;;;;;16.81;42.39;101785.94;343904;28;1149;-64
2021/03/31 00:15:29;;;;;;;19.80;11.63;;;;;;;16.79;41.93;101774.53;343996;28;1180;-63
2021/03/31 00:16:00;;;;;;;22.52;12.43;;;;;;;16.74;41.90;101781.91;342629;28;36334;-64
2021/03/31 00:16:13;;;;;;;20.08;12.57;;;;;;;16.75;42.37;101779.16;343969;28;1242;-63
2021/03/31 00:16:24;;;;;;;19.88;12.52;;;;;;;16.76;42.13;101780.00;343856;28;1005;-64
2021/03/31 00:16:35;;;;;;;23.15;12.13;;;;;;;16.76;42.29;101775.56;343955;28;1092;-64
2021/03/31 00:16:47;;;;;;;24.20;11.98;;;;;;;16.76;42.54;101778.22;343953;28;1176;-64
2021/03/31 00:16:58;;;;;;;22.77;12.02;;;;;;;16.76;42.14;101772.88;343810;28;1158;-64
2021/03/31 00:17:09;;;;;;;25.77;12.20;;;;;;;16.75;42.30;101778.31;343965;28;1069;-63
2021/03/31 00:17:20;;;;;;;27.08;12.70;;;;;;;16.71;41.75;101782.94;344015;28;1134;-63
2021/03/31 00:17:31;;;;;;;27.10;12.15;;;;;;;16.73;41.91;101778.41;344117;28;1168;-64
2021/03/31 00:17:42;;;;;;;20.67;11.95;;;;;;;16.72;41.64;101770.47;344121;28;1077;-63
2021/03/31 00:17:54;;;;;;;19.38;11.93;;;;;;;16.71;42.09;101780.28;343928;28;1163;-63
2021/03/31 00:18:07;;;;;;;19.10;12.02;;;;;;;16.68;42.39;101776.91;344151;28;1066;-64
2021/03/31 00:18:19;;;;;;;19.50;12.27;;;;;;;16.65;42.58;101779.75;344032;28;1223;-64
2021/03/31 00:18:31;;;;;;;21.58;11.98;;;;;;;16.66;41.95;101776.16;344105;28;1145;-64
2021/03/31 00:18:45;;;;;;;22.00;12.00;;;;;;;16.60;42.69;101780.03;343306;28;23545;-64
2021/03/31 00:18:56;;;;;;;21.60;11.98;;;;;;;16.63;42.22;101774.53;343819;28;1142;-65
2021/03/31 00:19:07;;;;;;;20.38;12.25;;;;;;;16.65;42.08;101771.75;343827;28;2167;-64
2021/03/31 00:19:19;;;;;;;21.20;12.30;;;;;;;16.65;41.98;101772.66;343829;28;1136;-64
2021/03/31 00:19:30;;;;;;;22.20;12.23;;;;;;;16.66;42.54;101779.69;343953;28;1169;-64
2021/03/31 00:19:59;;;;;;;20.80;11.95;;;;;;;16.50;42.14;101770.81;342833;28;33201;-65
2021/03/31 00:20:15;;;;;;;21.76;12.34;;;;;;;16.52;42.40;101771.59;343936;28;1099;-63
2021/03/31 00:20:26;;;;;;;21.20;12.30;;;;;;;16.58;42.88;101781.91;342377;28;49477;-64
2021/03/31 00:20:39;;;;;;;20.77;12.23;;;;;;;16.58;42.62;101768.56;343954;28;1136;-67
2021/03/31 00:20:52;;;;;;;19.08;12.00;;;;;;;16.58;42.86;101769.47;343941;28;1217;-67
2021/03/31 00:21:04;;;;;;;17.73;11.70;;;;;;;16.62;42.17;101773.66;344044;28;1184;-63
2021/03/31 00:21:15;;;;;;;19.15;11.77;;;;;;;16.60;42.13;101774.69;344104;28;1176;-64
2021/03/31 00:21:26;;;;;;;21.13;11.77;;;;;;;16.51;41.87;101778.72;344048;28;1053;-63
2021/03/31 00:21:37;;;;;;;21.23;11.88;;;;;;;16.44;42.51;101775.56;343995;28;1439;-63
2021/03/31 00:21:49;;;;;;;21.40;12.05;;;;;;;16.49;42.85;101777.13;344076;28;1066;-63
2021/03/31 00:22:01;;;;;;;22.20;12.20;;;;;;;16.50;42.45;101773.47;344025;28;1090;-63
2021/03/31 00:22:12;;;;;;;22.65;12.18;;;;;;;16.51;42.89;101778.72;344037;28;1444;-65
2021/03/31 00:22:23;;;;;;;22.25;12.60;;;;;;;16.50;42.87;101770.81;344086;28;1065;-64
2021/03/31 00:22:34;;;;;;;23.40;12.93;;;;;;;16.51;42.54;101778.72;343924;28;1130;-64
2021/03/31 00:22:46;;;;;;;22.55;12.88;;;;;;;16.57;42.98;101774.88;344069;28;1066;-64
2021/03/31 00:22:57;;;;;;;20.94;12.62;;;;;;;16.59;42.37;101773.81;344061;28;1077;-64
2021/03/31 00:23:14;;;;;;;20.45;12.35;;;;;;;16.62;42.54;101768.34;344065;28;1191;-64
2021/03/31 00:23:26;;;;;;;23.00;12.43;;;;;;;16.64;42.93;101781.59;341555;28;70967;-64
2021/03/31 00:23:38;;;;;;;23.65;12.82;;;;;;;16.62;42.29;101767.47;344030;28;2159;-64
2021/03/31 00:23:49;;;;;;;22.33;12.90;;;;;;;16.62;42.61;101772.78;344086;28;1168;-64
2021/03/31 00:24:00;;;;;;;21.05;12.40;;;;;;;16.62;42.45;101771.00;343974;28;1237;-65
2021/03/31 00:24:12;;;;;;;20.20;12.30;;;;;;;16.65;42.60;101777.09;344021;28;1107;-63
2021/03/31 00:24:23;;;;;;;20.85;12.45;;;;;;;16.67;42.65;101781.41;344048;28;1088;-64
2021/03/31 00:24:35;;;;;;;22.23;12.73;;;;;;;16.64;42.40;101770.91;344010;28;1366;-64
2021/03/31 00:24:46;;;;;;;20.85;12.80;;;;;;;16.63;42.75;101767.38;343918;28;2142;-65
2021/03/31 00:24:57;;;;;;;20.33;12.85;;;;;;;16.64;42.08;101773.59;344068;28;1087;-64
2021/03/31 00:25:10;;;;;;;19.23;12.50;;;;;;;16.63;42.76;101774.53;343993;28;1130;-64
2021/03/31 00:25:22;;;;;;;19.23;11.98;;;;;;;16.65;42.17;101774.44;343307;28;21525;-64
2021/03/31 00:25:33;;;;;;;21.25;12.15;;;;;;;16.66;42.19;101769.00;344029;28;1179;-63
2021/03/31 00:25:44;;;;;;;23.00;12.35;;;;;;;16.66;42.43;101774.34;344017;28;1394;-64
2021/03/31 00:25:56;;;;;;;24.38;12.57;;;;;;;16.65;42.66;101766.44;344062;28;1087;-64
2021/03/31 00:26:07;;;;;;;22.73;12.82;;;;;;;16.67;42.89;101773.41;343929;28;1156;-63
2021/03/31 00:26:19;;;;;;;20.08;12.35;;;;;;;16.68;42.72;101777.78;343854;28;1155;-63
2021/03/31 00:26:31;;;;;;;21.70;12.48;;;;;;;16.71;42.71;101772.28;343843;28;1155;-64
2021/03/31 00:26:42;;;;;;;21.94;12.36;;;;;;;16.72;42.69;101768.66;343960;28;1077;-64
2021/03/31 00:26:53;;;;;;;22.75;12.75;;;;;;;16.73;42.14;101764.19;343929;28;1138;-64
2021/03/31 00:27:04;;;;;;;21.63;12.65;;;;;;;16.72;42.74;101771.34;343950;28;1084;-63
2021/03/31 00:27:15;;;;;;;22.42;12.77;;;;;;;16.73;43.14;101770.41;343802;28;1126;-63
2021/03/31 00:27:26;;;;;;;21.65;12.68;;;;;;;16.72;42.93;101768.66;343966;28;1097;-62
2021/03/31 00:27:38;;;;;;;22.70;12.80;;;;;;;16.72;42.39;101774.00;342647;28;1168;-63
2021/03/31 00:27:49;;;;;;;22.65;13.10;;;;;;;16.72;42.98;101776.69;342658;28;1066;-63
2021/03/31 00:28:01;;;;;;;22.67;12.68;;;;;;;16.72;42.55;101768.66;342732;28;1129;-64
2021/03/31 00:28:13;;;;;;;24.25;12.65;;;;;;;16.75;42.76;101765.81;343751;28;1132;-64
2021/03/31 00:28:26;;;;;;;25.76;12.92;;;;;;;16.77;42.87;101765.72;343953;28;1074;-63
2021/03/31 00:28:42;;;;;;;22.30;12.73;;;;;;;16.75;42.55;101767.63;341620;28;71859;-63
2021/03/31 00:29:11;;;;;;;18.48;12.35;;;;;;;16.72;42.76;101762.47;342605;28;33184;-64
2021/03/31 00:29:22;;;;;;;18.92;12.52;;;;;;;16.73;42.92;101766.84;343971;28;1069;-64
2021/03/31 00:29:33;;;;;;;21.05;12.48;;;;;;;16.73;42.99;101765.06;344014;28;1065;-65
2021/03/31 00:29:44;;;;;;;24.23;12.55;;;;;;;16.74;42.65;101768.59;344093;28;1077;-64
2021/03/31 00:29:59;;;;;;;26.75;12.85;;;;;;;16.76;43.15;101769.34;342416;28;48598;-64
2021/03/31 00:30:13;;;;;;;24.38;13.23;;;;;;;16.78;43.11;101770.13;343943;28;1073;-63
2021/03/31 00:30:25;;;;;;;22.67;12.90;;;;;;;16.76;42.94;101761.34;343330;28;24328;-64
2021/03/31 00:30:37;;;;;;;21.20;12.85;;;;;;;16.72;42.47;101760.66;344046;28;1166;-65
2021/03/31 00:30:50;;;;;;;20.52;12.57;;;;;;;16.71;42.84;101763.44;344028;28;1211;-63
2021/03/31 00:31:01;;;;;;;20.58;12.34;;;;;;;16.68;42.95;101761.78;343955;28;1239;-64
2021/03/31 00:31:12;;;;;;;21.88;12.48;;;;;;;16.66;42.56;101757.50;343911;28;1340;-63
2021/03/31 00:31:24;;;;;;;23.08;12.73;;;;;;;16.67;42.80;101765.41;344056;28;1170;-64
2021/03/31 00:31:35;;;;;;;22.17;12.57;;;;;;;16.67;42.91;101770.72;344109;28;1067;-64
2021/03/31 00:31:49;;;;;;;21.83;12.82;;;;;;;16.68;42.68;101763.56;344106;28;1314;-64
2021/03/31 00:32:00;;;;;;;20.45;12.40;;;;;;;16.66;42.83;101763.66;343181;28;22999;-64
2021/03/31 00:32:11;;;;;;;19.85;12.48;;;;;;;16.66;42.67;101760.16;344060;28;1099;-63
2021/03/31 00:32:23;;;;;;;20.67;12.52;;;;;;;16.66;42.78;101763.66;343961;28;1327;-64
2021/03/31 00:32:34;;;;;;;19.98;12.70;;;;;;;16.67;42.20;101762.72;343963;28;1218;-64
2021/03/31 00:32:48;;;;;;;18.20;12.15;;;;;;;16.66;42.53;101770.81;343181;28;22435;-64
2021/03/31 00:33:19;;;;;;;20.33;12.13;;;;;;;16.61;42.53;101760.44;342831;28;33175;-63
2021/03/31 00:33:30;;;;;;;21.95;12.40;;;;;;;16.56;43.05;101763.34;343794;28;1966;-64
2021/03/31 00:33:41;;;;;;;22.58;12.88;;;;;;;16.56;43.19;101759.81;344004;28;1121;-64
2021/03/31 00:33:53;;;;;;;22.02;12.85;;;;;;;16.54;42.72;101757.25;343877;28;1102;-64
2021/03/31 00:34:04;;;;;;;22.77;12.63;;;;;;;16.48;42.92;101762.06;343900;28;1146;-64
2021/03/31 00:34:15;;;;;;;23.02;12.50;;;;;;;16.45;42.60;101763.94;343891;28;1122;-63
2021/03/31 00:34:26;;;;;;;22.90;12.32;;;;;;;16.40;42.96;101763.34;343888;28;1205;-64
2021/03/31 00:34:37;;;;;;;21.15;12.15;;;;;;;16.42;43.13;101760.59;344043;28;1065;-63
2021/03/31 00:34:48;;;;;;;19.90;12.30;;;;;;;16.45;43.43;101757.75;344016;28;1073;-63
2021/03/31 00:34:59;;;;;;;20.73;12.32;;;;;;;16.43;42.94;101760.50;344023;28;1169;-63
2021/03/31 00:35:11;;;;;;;22.38;12.60;;;;;;;16.39;42.65;101764.28;343971;28;1102;-63
2021/03/31 00:35:22;;;;;;;23.92;12.63;;;;;;;16.41;43.09;101756.19;343890;28;1118;-63
2021/03/31 00:35:33;;;;;;;23.33;12.75;;;;;;;16.42;43.51;101761.44;344006;28;812;-64
2021/03/31 00:35:45;;;;;;;22.13;12.68;;;;;;;16.40;43.49;101763.34;343849;28;1236;-63
2021/03/31 00:35:56;;;;;;;20.02;12.45;;;;;;;16.37;42.62;101757.31;343951;28;1082;-64
2021/03/31 00:36:07;;;;;;;21.02;12.50;;;;;;;16.36;43.16;101756.47;343842;28;1073;-63
2021/03/31 00:36:19;;;;;;;21.35;12.20;;;;;;;16.37;43.25;101755.50;343904;28;1097;-63
2021/03/31 00:36:30;;;;;;;22.48;12.32;;;;;;;16.33;42.58;101755.75;343878;28;1160;-63
2021/03/31 00:36:41;;;;;;;22.67;12.60;;;;;;;16.34;43.34;101757.50;343932;28;1161;-63
2021/03/31 00:36:53;;;;;;;21.92;12.63;;;;;;;16.37;42.87;101762.66;343904;28;1156;-63
2021/03/31 00:37:04;;;;;;;22.42;12.63;;;;;;;16.27;43.05;101756.97;343935;28;1142;-63
2021/03/31 00:37:15;;;;;;;23.08;12.45;;;;;;;16.22;42.56;101757.19;344096;28;1180;-63
2021/03/31 00:37:44;;;;;;;22.48;12.52;;;;;;;16.24;43.48;101757.13;342961;28;34054;-64
2021/03/31 00:37:56;;;;;;;21.08;12.85;;;;;;;16.21;43.46;101752.84;344035;28;1340;-64
2021/03/31 00:38:08;;;;;;;20.65;13.00;;;;;;;16.19;43.25;101756.53;344034;28;1164;-64
2021/03/31 00:38:19;;;;;;;21.90;13.02;;;;;;;16.24;43.16;101757.13;343992;28;1157;-63
2021/03/31 00:38:30;;;;;;;22.50;12.45;;;;;;;16.23;43.63;101760.75;343887;28;1142;-64
2021/03/31 00:38:42;;;;;;;22.10;12.73;;;;;;;16.16;43.10;101757.53;344047;28;1077;-66
2021/03/31 00:38:54;;;;;;;21.52;12.93;;;;;;;16.22;43.78;101753.69;344030;28;1131;-64
2021/03/31 00:39:07;;;;;;;22.20;12.88;;;;;;;16.27;43.29;101756.97;344089;28;1121;-64
2021/03/31 00:39:18;;;;;;;23.10;12.82;;;;;;;16.28;43.15;101754.22;343987;28;1002;-64
2021/03/31 00:39:29;;;;;;;22.08;12.85;;;;;;;16.22;42.79;101756.34;344017;28;1142;-66
2021/03/31 00:39:40;;;;;;;21.88;12.90;;;;;;;16.13;43.17;101762.16;344085;28;1081;-63
2021/03/31 00:39:52;;;;;;;21.52;12.98;;;;;;;16.20;43.46;101758.25;344062;28;1018;-64
2021/03/31 00:40:12;;;;;;;23.40;13.20;;;;;;;16.27;43.26;101751.63;344044;28;1077;-64
2021/03/31 00:40:30;;;;;;;20.85;13.23;;;;;;;16.28;43.17;101748.88;340792;28;94915;-64
2021/03/31 00:40:50;;;;;;;21.52;13.13;;;;;;;16.24;43.44;101751.81;341716;28;71157;-63
2021/03/31 00:41:05;;;;;;;21.55;13.07;;;;;;;16.27;43.40;101752.47;341693;28;71609;-63
2021/03/31 00:41:16;;;;;;;20.48;12.90;;;;;;;16.30;43.38;101762.13;344041;28;1140;-64
2021/03/31 00:41:27;;;;;;;19.70;12.85;;;;;;;16.31;43.31;101758.53;344015;28;1089;-63
2021/03/31 00:41:38;;;;;;;22.52;13.00;;;;;;;16.31;43.14;101758.53;344045;28;1041;-64
2021/03/31 00:41:49;;;;;;;22.80;13.18;;;;;;;16.33;43.46;101755.75;344038;28;1114;-63
2021/03/31 00:42:00;;;;;;;22.67;13.13;;;;;;;16.33;43.84;101759.28;343957;28;1145;-65
2021/03/31 00:42:12;;;;;;;21.63;12.90;;;;;;;16.30;43.45;101751.47;343940;28;1054;-63
2021/03/31 00:42:23;;;;;;;22.27;13.27;;;;;;;16.32;43.78;101754.03;344058;28;1094;-63
2021/03/31 00:42:34;;;;;;;24.10;13.27;;;;;;;16.26;43.24;101753.41;344018;28;1221;-64
2021/03/31 00:42:47;;;;;;;25.75;13.48;;;;;;;16.25;43.11;101753.50;344045;28;1184;-64
2021/03/31 00:42:58;;;;;;;24.85;13.15;;;;;;;16.26;43.87;101753.41;344001;28;1209;-63
2021/03/31 00:43:27;;;;;;;23.05;13.02;;;;;;;16.27;43.46;101751.63;342968;28;32732;-66
2021/03/31 00:43:38;;;;;;;24.23;13.40;;;;;;;16.29;44.12;101752.41;344024;28;1145;-63
2021/03/31 00:43:49;;;;;;;24.48;13.38;;;;;;;16.28;43.41;101750.69;344037;28;1226;-63
2021/03/31 00:44:19;;;;;;;22.33;12.70;;;;;;;16.32;43.59;101751.38;342971;28;33229;-63
2021/03/31 00:44:31;;;;;;;21.50;12.60;;;;;;;16.32;43.85;101749.59;344109;28;1033;-64
2021/03/31 00:44:43;;;;;;;22.23;12.88;;;;;;;16.30;43.25;101751.47;344006;28;1196;-64
2021/03/31 00:44:54;;;;;;;21.92;13.02;;;;;;;16.32;43.14;101746.03;343989;28;1101;-65
2021/03/31 00:45:07;;;;;;;20.65;12.80;;;;;;;16.30;43.60;101747.94;343990;28;1140;-63
2021/03/31 00:45:19;;;;;;;20.38;13.10;;;;;;;16.33;43.59;101742.44;343261;28;24436;-64
2021/03/31 00:45:30;;;;;;;19.83;13.32;;;;;;;16.33;42.73;101751.28;344062;28;1102;-63
2021/03/31 00:45:42;;;;;;;20.75;13.32;;;;;;;16.31;43.52;101750.53;344043;28;1071;-64
2021/03/31 00:46:11;;;;;;;23.52;13.77;;;;;;;16.31;43.32;101747.84;342914;28;33262;-63
2021/03/31 00:46:22;;;;;;;23.33;13.52;;;;;;;16.33;43.94;101747.75;344066;28;1090;-64
2021/03/31 00:46:33;;;;;;;22.52;13.23;;;;;;;16.33;44.01;101750.44;343912;28;1070;-63
2021/03/31 00:46:46;;;;;;;22.52;12.75;;;;;;;16.34;43.90;101750.34;343809;28;1114;-64
2021/03/31 00:46:57;;;;;;;21.55;12.93;;;;;;;16.32;43.25;101754.91;343855;28;1131;-63
2021/03/31 00:47:08;;;;;;;20.17;13.02;;;;;;;16.31;43.14;101753.19;343909;28;1177;-63
2021/03/31 00:47:19;;;;;;;20.33;12.98;;;;;;;16.34;43.88;101744.16;343989;28;1132;-64
2021/03/31 00:47:30;;;;;;;19.83;12.55;;;;;;;16.35;43.90;101748.53;343927;28;1134;-63
2021/03/31 00:47:42;;;;;;;19.67;12.43;;;;;;;16.37;43.70;101757.31;342589;28;1166;-64
2021/03/31 00:47:53;;;;;;;19.42;12.65;;;;;;;16.39;43.53;101755.41;342567;28;1319;-63
2021/03/31 00:48:05;;;;;;;20.65;13.18;;;;;;;16.39;43.50;101752.75;342545;28;1209;-63
2021/03/31 00:48:16;;;;;;;21.23;13.45;;;;;;;16.41;43.51;101751.72;342605;28;1210;-64
2021/03/31 00:48:28;;;;;;;21.65;13.48;;;;;;;16.41;43.80;101753.53;342916;28;1070;-64
2021/03/31 00:48:39;;;;;;;21.67;13.20;;;;;;;16.40;43.66;101755.34;343847;28;2019;-63
2021/03/31 00:48:50;;;;;;;22.63;13.32;;;;;;;16.39;43.73;101750.97;343852;28;2073;-63
2021/03/31 00:49:19;;;;;;;19.88;12.90;;;;;;;16.40;44.11;101747.34;342868;28;33185;-64
2021/03/31 00:49:31;;;;;;;21.00;13.10;;;;;;;16.40;43.26;101746.47;343838;28;1202;-64
2021/03/31 00:49:42;;;;;;;22.02;12.88;;;;;;;16.38;43.94;101743.03;343934;28;1073;-64
2021/03/31 00:49:54;;;;;;;22.70;12.98;;;;;;;16.38;43.58;101746.56;344101;28;1106;-64
2021/03/31 00:50:08;;;;;;;22.33;12.93;;;;;;;16.38;43.94;101749.22;344009;28;1117;-63
2021/03/31 00:50:20;;;;;;;24.42;13.30;;;;;;;16.40;43.92;101747.34;342506;28;48272;-64
2021/03/31 00:50:31;;;;;;;25.80;13.10;;;;;;;16.40;44.12;101755.34;343949;28;1114;-64
2021/03/31 00:50:48;;;;;;;23.23;12.70;;;;;;;16.39;43.48;101745.63;344010;28;1113;-64
2021/03/31 00:51:00;;;;;;;20.85;12.57;;;;;;;16.39;43.98;101748.28;341648;28;71971;-63
2021/03/31 00:51:12;;;;;;;21.90;12.52;;;;;;;16.37;43.74;101743.97;343951;28;1089;-63
2021/03/31 00:51:23;;;;;;;22.25;12.88;;;;;;;16.37;44.06;101742.16;343999;28;1180;-65
2021/03/31 00:51:34;;;;;;;21.73;13.15;;;;;;;16.35;43.65;101749.41;343848;28;2080;-64
2021/03/31 00:51:46;;;;;;;23.00;13.00;;;;;;;16.36;43.59;101743.13;344072;28;1164;-63
2021/03/31 00:51:57;;;;;;;22.33;12.68;;;;;;;16.38;44.04;101745.72;344077;28;1156;-63
2021/03/31 00:52:09;;;;;;;21.35;12.60;;;;;;;16.38;44.04;101743.88;344044;28;1187;-64
2021/03/31 00:52:23;;;;;;;22.30;13.15;;;;;;;16.39;43.97;101742.06;342501;28;47736;-64
2021/03/31 00:52:36;;;;;;;22.40;13.27;;;;;;;16.38;44.02;101745.72;343951;28;1103;-63
2021/03/31 00:52:50;;;;;;;21.48;12.95;;;;;;;16.40;43.38;101747.34;344050;28;1401;-65
2021/03/31 00:53:02;;;;;;;22.35;12.98;;;;;;;16.39;43.89;101742.06;343278;28;24388;-63
2021/03/31 00:53:19;;;;;;;24.10;13.13;;;;;;;16.33;42.98;101745.94;344078;28;2001;-64
2021/03/31 00:53:35;;;;;;;27.55;14.73;;;;;;;16.27;43.41;101743.63;341691;28;70960;-64
2021/03/31 00:53:48;;;;;;;29.42;15.48;;;;;;;16.23;42.91;101740.28;341534;28;71645;-64
2021/03/31 00:53:59;;;;;;;27.65;15.40;;;;;;;16.21;43.70;101734.19;343892;28;1078;-64
2021/03/31 00:54:10;;;;;;;27.15;14.98;;;;;;;16.17;43.43;101745.06;343892;28;1165;-64
2021/03/31 00:54:22;;;;;;;27.08;15.60;;;;;;;16.14;43.08;101734.59;343823;28;1070;-63
2021/03/31 00:54:33;;;;;;;27.88;15.95;;;;;;;16.13;43.60;101735.53;343948;28;1197;-65
2021/03/31 00:54:44;;;;;;;28.90;16.13;;;;;;;16.09;43.37;101741.03;343882;28;1198;-64
2021/03/31 00:54:56;;;;;;;25.70;16.05;;;;;;;16.09;43.82;101733.03;343913;28;1992;-64
2021/03/31 00:55:07;;;;;;;25.05;16.23;;;;;;;16.08;43.43;101730.47;343928;28;1176;-64
2021/03/31 00:55:22;;;;;;;25.80;16.48;;;;;;;16.11;43.43;101736.50;343773;28;1147;-64
2021/03/31 00:55:34;;;;;;;27.23;16.27;;;;;;;16.06;43.48;101733.22;342365;28;48368;-65
2021/03/31 00:55:46;;;;;;;26.58;16.15;;;;;;;15.98;43.77;101743.41;343898;28;1091;-63
2021/03/31 00:55:58;;;;;;;25.55;16.27;;;;;;;16.01;44.31;101729.94;344003;28;1176;-64
2021/03/31 00:56:10;;;;;;;24.98;16.00;;;;;;;16.07;44.34;101734.94;343907;28;1055;-66
2021/03/31 00:56:21;;;;;;;27.50;16.40;;;;;;;16.09;43.92;101735.69;343991;28;1118;-65
2021/03/31 00:56:32;;;;;;;28.27;16.70;;;;;;;16.13;44.31;101733.75;344123;28;1062;-64
2021/03/31 00:56:43;;;;;;;28.70;16.85;;;;;;;16.15;43.99;101730.97;344015;28;1065;-64
2021/03/31 00:56:55;;;;;;;27.90;16.48;;;;;;;16.09;43.75;101737.50;344043;28;1073;-65
2021/03/31 00:57:06;;;;;;;27.80;16.67;;;;;;;16.10;43.54;101737.44;343999;28;1086;-64
2021/03/31 00:57:37;;;;;;;28.23;16.85;;;;;;;16.13;44.33;101728.41;343017;28;33300;-64
2021/03/31 00:57:49;;;;;;;26.67;16.70;;;;;;;16.13;43.88;101732.84;344017;28;1202;-64
2021/03/31 00:58:00;;;;;;;25.00;15.75;;;;;;;16.12;43.59;101734.69;343950;28;1123;-63
2021/03/31 00:58:12;;;;;;;27.05;15.40;;;;;;;16.15;43.99;101730.97;344004;28;1168;-63
2021/03/31 00:58:23;;;;;;;27.38;15.32;;;;;;;16.12;44.18;101729.34;343975;28;1054;-64
2021/03/31 00:58:36;;;;;;;28.05;16.10;;;;;;;16.16;44.26;101732.72;344010;28;1970;-65
2021/03/31 00:58:48;;;;;;;26.10;15.88;;;;;;;16.16;43.62;101728.22;343116;28;24198;-64
2021/03/31 00:58:59;;;;;;;27.35;16.65;;;;;;;16.19;43.69;101735.19;343879;28;1117;-64
2021/03/31 00:59:10;;;;;;;27.52;16.55;;;;;;;16.18;44.03;101731.66;343919;28;1058;-64
2021/03/31 00:59:21;;;;;;;28.85;16.55;;;;;;;16.15;43.28;101725.66;343901;28;2007;-63